createdAt,value
2018-04-22T00:00:41.117Z,10.97
2018-04-22T00:03:08.625Z,11.53
2018-04-22T00:05:36.040Z,13.57
2018-04-22T00:08:03.473Z,11.23
2018-04-22T00:10:30.918Z,10.40
2018-04-22T00:12:58.356Z,8.40
2018-04-22T00:15:25.765Z,8.87
2018-04-22T00:17:53.189Z,11.63
2018-04-22T00:20:20.663Z,17.00
2018-04-22T00:22:48.084Z,7.70
2018-04-22T00:25:17.109Z,15.80
2018-04-22T00:27:45.295Z,14.17
2018-04-22T00:30:13.525Z,9.85
2018-04-22T00:32:40.964Z,10.10
2018-04-22T00:35:09.186Z,13.30
2018-04-22T00:37:36.615Z,17.33
2018-04-22T00:40:04.839Z,15.63
2018-04-22T00:42:32.293Z,17.03
2018-04-22T00:45:00.504Z,13.53
2018-04-22T00:47:27.923Z,16.97
2018-04-22T00:49:56.128Z,12.90
2018-04-22T00:52:24.313Z,15.00
2018-04-22T00:54:52.517Z,13.80
2018-04-22T00:57:20.795Z,11.10
2018-04-22T00:59:48.261Z,13.57
2018-04-22T01:02:16.448Z,12.00
2018-04-22T01:04:43.903Z,10.93
2018-04-22T01:07:12.085Z,19.30
2018-04-22T01:09:40.330Z,17.43
2018-04-22T01:12:07.841Z,23.23
2018-04-22T01:14:36.938Z,16.87
2018-04-22T01:17:04.356Z,21.73
2018-04-22T01:19:31.800Z,10.70
2018-04-22T01:21:59.311Z,10.80
2018-04-22T01:24:26.724Z,15.23
2018-04-22T01:26:54.146Z,15.00
2018-04-22T01:29:21.620Z,13.27
2018-04-22T01:31:49.041Z,17.37
2018-04-22T01:34:17.257Z,11.60
2018-04-22T01:36:44.691Z,14.40
2018-04-22T01:39:12.970Z,16.83
2018-04-22T01:41:40.412Z,14.47
2018-04-22T01:44:07.825Z,12.47
2018-04-22T01:46:36.042Z,12.47
2018-04-22T01:49:03.532Z,14.13
2018-04-22T01:51:30.952Z,10.97
2018-04-22T01:53:59.152Z,12.13
2018-04-22T01:56:27.356Z,14.67
2018-04-22T01:58:54.772Z,12.80
2018-04-22T02:01:22.186Z,9.33
2018-04-22T02:03:51.276Z,10.57
2018-04-22T02:06:19.469Z,13.43
2018-04-22T02:08:47.647Z,12.17
2018-04-22T02:11:15.846Z,15.20
2018-04-22T02:13:43.358Z,11.47
2018-04-22T02:16:10.765Z,9.73
2018-04-22T02:18:38.960Z,11.70
2018-04-22T02:21:07.145Z,15.80
2018-04-22T02:23:35.338Z,7.60
2018-04-22T02:26:02.776Z,13.57
2018-04-22T02:28:30.185Z,9.90
2018-04-22T02:30:57.609Z,12.17
2018-04-22T02:33:25.050Z,11.10
2018-04-22T02:35:52.513Z,12.00
2018-04-22T02:38:19.925Z,14.83
2018-04-22T02:40:47.342Z,13.10
2018-04-22T02:43:14.760Z,19.10
2018-04-22T02:45:42.181Z,12.90
2018-04-22T02:48:09.630Z,18.67
2018-04-22T02:50:37.816Z,11.17
2018-04-22T02:53:06.025Z,13.93
2018-04-22T02:55:33.612Z,20.23
2018-04-22T02:58:01.057Z,18.17
2018-04-22T03:00:28.481Z,11.00
2018-04-22T03:02:55.901Z,11.13
2018-04-22T03:05:23.385Z,14.17
2018-04-22T03:07:50.817Z,12.97
2018-04-22T03:10:18.989Z,22.33
2018-04-22T03:12:47.192Z,10.03
2018-04-22T03:15:14.672Z,10.83
2018-04-22T03:17:42.110Z,12.70
2018-04-22T03:20:09.516Z,13.63
2018-04-22T03:22:36.943Z,16.47
2018-04-22T03:25:05.130Z,13.50
2018-04-22T03:27:33.317Z,18.30
2018-04-22T03:30:01.492Z,12.53
2018-04-22T03:32:28.920Z,9.73
2018-04-22T03:34:56.350Z,16.50
2018-04-22T03:37:24.550Z,12.43
2018-04-22T03:39:53.239Z,12.23
2018-04-22T03:42:22.360Z,12.80
2018-04-22T03:44:49.792Z,11.57
2018-04-22T03:47:17.196Z,15.00
2018-04-22T03:49:44.779Z,13.93
2018-04-22T03:52:12.178Z,12.33
2018-04-22T03:54:39.722Z,14.10
2018-04-22T03:57:07.149Z,12.43
2018-04-22T03:59:34.568Z,14.07
2018-04-22T04:02:02.008Z,15.53
2018-04-22T04:04:29.429Z,10.60
2018-04-22T04:06:56.853Z,14.10
2018-04-22T04:09:24.344Z,13.47
2018-04-22T04:11:51.841Z,11.30
2018-04-22T04:14:19.244Z,15.20
2018-04-22T04:16:46.752Z,11.53
2018-04-22T04:19:26.092Z,14.77
2018-04-22T04:22:05.441Z,9.80
2018-04-22T04:24:44.606Z,14.20
2018-04-22T04:27:23.899Z,11.00
2018-04-22T04:29:52.089Z,10.57
2018-04-22T04:32:20.304Z,18.13
2018-04-22T04:34:47.764Z,12.77
2018-04-22T04:37:15.188Z,11.87
2018-04-22T04:39:42.609Z,11.93
2018-04-22T04:42:10.085Z,13.97
2018-04-22T04:44:37.492Z,12.03
2018-04-22T04:47:05.708Z,17.73
2018-04-22T04:49:33.327Z,17.57
2018-04-22T04:52:00.865Z,16.13
2018-04-22T04:54:28.274Z,16.67
2018-04-22T04:56:55.718Z,23.50
2018-04-22T04:59:23.604Z,16.25
2018-04-22T05:01:51.032Z,14.37
2018-04-22T05:04:19.333Z,17.67
2018-04-22T05:06:46.790Z,12.47
2018-04-22T05:09:14.976Z,12.10
2018-04-22T05:11:42.425Z,12.63
2018-04-22T05:14:09.883Z,10.70
2018-04-22T05:16:37.473Z,12.30
2018-04-22T05:19:04.910Z,11.97
2018-04-22T05:21:32.351Z,15.40
2018-04-22T05:24:00.572Z,19.13
2018-04-22T05:26:28.011Z,14.17
2018-04-22T05:28:55.450Z,24.23
2018-04-22T05:31:23.872Z,15.87
2018-04-22T05:33:51.284Z,13.90
2018-04-22T05:36:18.705Z,12.93
2018-04-22T05:38:46.122Z,13.20
2018-04-22T05:41:13.796Z,27.40
2018-04-22T05:43:41.208Z,13.87
2018-04-22T05:46:08.681Z,19.00
2018-04-22T05:48:36.836Z,17.00
2018-04-22T05:51:05.067Z,15.33
2018-04-22T05:53:32.517Z,18.75
2018-04-22T05:56:00.731Z,18.60
2018-04-22T05:58:28.192Z,28.62
2018-04-22T06:00:55.625Z,19.33
2018-04-22T06:03:24.728Z,15.00
2018-04-22T06:05:52.186Z,21.93
2018-04-22T06:08:19.704Z,19.53
2018-04-22T06:10:47.125Z,17.27
2018-04-22T06:13:14.551Z,15.30
2018-04-22T06:15:41.954Z,19.33
2018-04-22T06:18:09.392Z,15.13
2018-04-22T06:20:36.824Z,18.83
2018-04-22T06:23:05.487Z,17.50
2018-04-22T06:25:32.897Z,17.80
2018-04-22T06:28:00.352Z,19.33
2018-04-22T06:30:28.536Z,15.50
2018-04-22T06:32:56.720Z,15.50
2018-04-22T06:35:25.008Z,18.87
2018-04-22T06:37:54.108Z,17.87
2018-04-22T06:40:21.611Z,16.53
2018-04-22T06:42:49.082Z,14.53
2018-04-22T06:45:16.555Z,13.67
2018-04-22T06:47:44.736Z,21.07
2018-04-22T06:50:12.209Z,16.97
2018-04-22T06:52:39.678Z,16.40
2018-04-22T06:55:07.094Z,21.00
2018-04-22T06:57:34.519Z,18.30
2018-04-22T07:00:01.928Z,13.03
2018-04-22T07:02:29.351Z,17.90
2018-04-22T07:04:56.766Z,19.27
2018-04-22T07:07:25.354Z,13.60
2018-04-22T07:09:52.908Z,16.37
2018-04-22T07:12:20.317Z,17.90
2018-04-22T07:14:47.722Z,21.97
2018-04-22T07:17:15.131Z,10.90
2018-04-22T07:19:42.540Z,21.13
2018-04-22T07:22:09.953Z,13.10
2018-04-22T07:24:37.369Z,12.13
2018-04-22T07:27:05.593Z,13.67
2018-04-22T07:29:33.036Z,14.85
2018-04-22T07:32:00.505Z,13.77
2018-04-22T07:34:27.920Z,14.70
2018-04-22T07:36:55.364Z,13.40
2018-04-22T07:39:22.824Z,12.80
2018-04-22T07:41:51.004Z,10.60
2018-04-22T07:44:19.211Z,20.30
2018-04-22T07:46:46.627Z,15.73
2018-04-22T07:49:14.831Z,15.67
2018-04-22T07:51:43.056Z,13.63
2018-04-22T07:54:10.466Z,18.00
2018-04-22T07:56:37.882Z,12.97
2018-04-22T07:59:05.305Z,14.77
2018-04-22T08:01:32.733Z,15.20
2018-04-22T08:04:00.156Z,18.23
2018-04-22T08:06:28.336Z,15.10
2018-04-22T08:08:56.559Z,16.80
2018-04-22T08:11:24.936Z,20.53
2018-04-22T08:13:52.344Z,16.73
2018-04-22T08:16:20.243Z,16.97
2018-04-22T08:18:47.618Z,14.30
2018-04-22T08:21:15.156Z,15.97
2018-04-22T08:23:42.584Z,15.47
2018-04-22T08:26:10.080Z,18.63
2018-04-22T08:28:37.551Z,14.00
2018-04-22T08:31:05.115Z,16.17
2018-04-22T08:33:32.531Z,13.35
2018-04-22T08:36:00.054Z,14.67
2018-04-22T08:38:27.472Z,15.87
2018-04-22T08:40:55.306Z,17.57
2018-04-22T08:43:22.710Z,16.30
2018-04-22T08:45:50.138Z,20.93
2018-04-22T08:48:17.601Z,14.67
2018-04-22T08:50:45.085Z,17.07
2018-04-22T08:53:12.512Z,17.87
2018-04-22T08:55:40.721Z,21.90
2018-04-22T08:58:08.204Z,20.40
2018-04-22T09:00:35.620Z,20.63
2018-04-22T09:03:03.821Z,20.17
2018-04-22T09:05:32.012Z,23.47
2018-04-22T09:08:00.255Z,29.83
2018-04-22T09:10:27.685Z,20.40
2018-04-22T09:12:56.369Z,30.83
2018-04-22T09:15:25.492Z,18.00
2018-04-22T09:17:52.931Z,21.10
2018-04-22T09:20:20.345Z,22.37
2018-04-22T09:22:47.757Z,25.27
2018-04-22T09:25:15.176Z,36.27
2018-04-22T09:27:42.644Z,25.37
2018-04-22T09:30:10.053Z,26.73
2018-04-22T09:32:37.588Z,28.20
2018-04-22T09:35:05.010Z,28.83
2018-04-22T09:37:33.209Z,26.70
2018-04-22T09:40:00.676Z,25.70
2018-04-22T09:42:28.872Z,24.70
2018-04-22T09:44:57.073Z,26.50
2018-04-22T09:47:24.535Z,24.77
2018-04-22T09:49:52.042Z,23.97
2018-04-22T09:52:19.481Z,29.03
2018-04-22T09:54:46.958Z,21.60
2018-04-22T09:57:14.416Z,27.30
2018-04-22T09:59:41.832Z,25.62
2018-04-22T10:02:14.991Z,21.77
2018-04-22T10:04:51.130Z,28.73
2018-04-22T10:07:19.342Z,22.97
2018-04-22T10:09:47.529Z,28.87
2018-04-22T10:12:14.957Z,31.87
2018-04-22T10:14:42.376Z,27.10
2018-04-22T10:17:09.833Z,23.90
2018-04-22T10:19:38.000Z,27.10
2018-04-22T10:22:05.500Z,24.03
2018-04-22T10:24:32.923Z,30.20
2018-04-22T10:27:01.119Z,30.20
2018-04-22T10:29:28.540Z,25.20
2018-04-22T10:31:57.158Z,36.97
2018-04-22T10:34:24.584Z,28.77
2018-04-22T10:36:51.998Z,31.83
2018-04-22T10:39:19.414Z,28.60
2018-04-22T10:41:47.612Z,29.90
2018-04-22T10:44:15.784Z,25.93
2018-04-22T10:46:43.215Z,27.65
2018-04-22T10:49:10.632Z,26.27
2018-04-22T10:51:38.869Z,25.63
2018-04-22T10:56:40.967Z,31.83
2018-04-22T10:59:08.411Z,28.50
2018-04-22T11:01:36.579Z,35.60
2018-04-22T11:04:04.764Z,40.07
2018-04-22T11:06:32.948Z,27.40
2018-04-22T11:09:01.149Z,26.70
2018-04-22T11:11:28.659Z,27.17
2018-04-22T11:13:57.733Z,27.87
2018-04-22T11:16:25.311Z,29.20
2018-04-22T11:18:52.743Z,28.33
2018-04-22T11:21:20.146Z,25.40
2018-04-22T11:23:47.577Z,29.70
2018-04-22T11:26:15.120Z,29.97
2018-04-22T11:28:42.544Z,27.53
2018-04-22T11:31:10.848Z,29.00
2018-04-22T11:33:39.032Z,32.90
2018-04-22T11:36:06.700Z,39.77
2018-04-22T11:38:34.188Z,34.37
2018-04-22T11:41:01.631Z,32.37
2018-04-22T11:43:29.817Z,29.87
2018-04-22T11:45:57.995Z,28.10
2018-04-22T11:48:27.114Z,31.53
2018-04-22T11:50:55.298Z,24.87
2018-04-22T11:53:26.514Z,28.93
2018-04-22T11:55:53.948Z,30.67
2018-04-22T11:58:21.402Z,28.77
2018-04-22T12:00:48.812Z,37.30
2018-04-22T12:03:16.232Z,29.53
2018-04-22T12:05:43.716Z,34.40
2018-04-22T12:08:11.286Z,30.57
2018-04-22T12:10:38.702Z,27.87
2018-04-22T12:13:06.135Z,28.10
2018-04-22T12:15:33.708Z,28.90
2018-04-22T12:18:01.147Z,28.17
2018-04-22T12:20:28.611Z,31.80
2018-04-22T12:22:55.996Z,33.17
2018-04-22T12:25:23.409Z,30.23
2018-04-22T12:27:50.832Z,31.03
2018-04-22T12:30:18.305Z,31.47
2018-04-22T12:32:46.464Z,28.73
2018-04-22T12:35:13.881Z,27.93
2018-04-22T12:37:41.321Z,29.60
2018-04-22T12:40:08.739Z,28.27
2018-04-22T12:42:36.270Z,28.80
2018-04-22T12:45:03.690Z,28.30
2018-04-22T12:47:31.265Z,29.60
2018-04-22T12:49:59.453Z,27.30
2018-04-22T12:52:28.592Z,28.30
2018-04-22T12:54:56.787Z,26.07
2018-04-22T12:57:24.246Z,26.23
2018-04-22T12:59:51.656Z,26.13
2018-04-22T13:02:19.083Z,31.17
2018-04-22T13:04:46.512Z,26.80
2018-04-22T13:07:13.923Z,28.60
2018-04-22T13:09:41.366Z,25.13
2018-04-22T13:12:09.545Z,25.33
2018-04-22T13:14:37.733Z,25.83
2018-04-22T13:17:06.103Z,30.73
2018-04-22T13:19:33.624Z,33.57
2018-04-22T13:22:01.925Z,25.13
2018-04-22T13:24:29.356Z,29.83
2018-04-22T13:26:58.593Z,25.00
2018-04-22T13:29:26.059Z,28.33
2018-04-22T13:31:54.226Z,26.13
2018-04-22T13:34:22.452Z,27.70
2018-04-22T13:36:49.997Z,27.80
2018-04-22T13:39:18.184Z,31.83
2018-04-22T13:41:45.768Z,21.60
2018-04-22T13:44:13.202Z,22.20
2018-04-22T13:46:41.380Z,27.73
2018-04-22T13:49:09.597Z,35.23
2018-04-22T13:51:37.069Z,27.23
2018-04-22T13:54:04.588Z,33.70
2018-04-22T13:56:32.012Z,25.93
2018-04-22T13:58:59.448Z,23.60
2018-04-22T14:01:28.596Z,28.17
2018-04-22T14:03:56.007Z,30.13
2018-04-22T14:06:23.428Z,28.93
2018-04-22T14:08:50.852Z,30.10
2018-04-22T14:11:19.048Z,26.97
2018-04-22T14:13:47.264Z,21.33
2018-04-22T14:16:15.416Z,28.43
2018-04-22T14:18:42.930Z,24.10
2018-04-22T14:21:10.387Z,27.60
2018-04-22T14:23:38.202Z,25.15
2018-04-22T14:26:05.631Z,24.67
2018-04-22T14:28:33.108Z,33.00
2018-04-22T14:31:00.569Z,26.80
2018-04-22T14:33:29.677Z,24.60
2018-04-22T14:35:57.081Z,34.80
2018-04-22T14:38:24.536Z,26.60
2018-04-22T14:40:51.974Z,31.90
2018-04-22T14:43:19.458Z,28.93
2018-04-22T14:48:56.224Z,32.77
2018-04-22T14:51:23.637Z,29.43
2018-04-22T14:53:51.072Z,27.37
2018-04-22T14:56:18.547Z,25.77
2018-04-22T14:58:45.977Z,38.57
2018-04-22T15:01:13.388Z,34.13
2018-04-22T15:03:40.804Z,30.77
2018-04-22T15:06:08.244Z,34.03
2018-04-22T15:08:35.737Z,32.17
2018-04-22T15:11:03.160Z,26.73
2018-04-22T15:13:31.377Z,23.93
2018-04-22T15:16:00.488Z,29.90
2018-04-22T15:18:27.910Z,19.60
2018-04-22T15:20:55.448Z,25.70
2018-04-22T15:23:22.907Z,24.40
2018-04-22T15:25:50.316Z,32.10
2018-04-22T15:28:17.832Z,22.57
2018-04-22T15:30:45.273Z,37.57
2018-04-22T15:33:13.486Z,25.17
2018-04-22T15:35:40.927Z,22.03
2018-04-22T15:38:09.146Z,23.10
2018-04-22T15:40:36.649Z,32.20
2018-04-22T15:43:04.106Z,29.33
2018-04-22T15:45:31.517Z,20.70
2018-04-22T15:48:00.716Z,22.85
2018-04-22T15:50:28.160Z,21.57
2018-04-22T15:52:55.605Z,27.80
2018-04-22T15:55:23.023Z,25.73
2018-04-22T15:57:50.431Z,32.43
2018-04-22T16:00:17.900Z,26.33
2018-04-22T16:02:45.349Z,25.70
2018-04-22T16:05:13.532Z,26.30
2018-04-22T16:07:41.777Z,33.27
2018-04-22T16:10:09.207Z,25.17
2018-04-22T16:12:36.720Z,41.67
2018-04-22T16:15:04.142Z,27.83
2018-04-22T16:17:31.616Z,27.73
2018-04-22T16:19:59.041Z,26.13
2018-04-22T16:22:26.486Z,39.23
2018-04-22T16:24:53.900Z,30.33
2018-04-22T16:27:22.080Z,32.20
2018-04-22T16:29:50.296Z,33.97
2018-04-22T16:32:17.750Z,30.30
2018-04-22T16:34:45.941Z,37.10
2018-04-22T16:37:13.393Z,30.37
2018-04-22T16:39:41.576Z,35.75
2018-04-22T16:42:09.770Z,41.50
2018-04-22T16:44:38.009Z,32.50
2018-04-22T16:47:05.420Z,35.40
2018-04-22T16:49:33.645Z,33.40
2018-04-22T16:52:01.070Z,34.83
2018-04-22T16:54:29.296Z,31.13
2018-04-22T16:56:56.740Z,33.53
2018-04-22T16:59:24.937Z,36.23
2018-04-22T17:01:52.360Z,35.43
2018-04-22T17:04:19.794Z,37.50
2018-04-22T17:06:47.229Z,32.47
2018-04-22T17:09:15.479Z,34.20
2018-04-22T17:11:42.926Z,38.35
2018-04-22T17:14:10.333Z,33.90
2018-04-22T17:16:37.751Z,32.63
2018-04-22T17:19:05.241Z,37.83
2018-04-22T17:21:32.669Z,41.60
2018-04-22T17:24:00.101Z,38.87
2018-04-22T17:26:29.032Z,31.07
2018-04-22T17:28:56.450Z,28.33
2018-04-22T17:31:23.864Z,34.37
2018-04-22T17:33:51.282Z,23.67
2018-04-22T17:36:19.671Z,24.90
2018-04-22T17:38:47.092Z,33.23
2018-04-22T17:41:15.484Z,33.17
2018-04-22T17:43:42.928Z,10.30
2018-04-22T17:46:10.348Z,10.13
2018-04-22T17:48:37.760Z,11.23
2018-04-22T17:51:05.174Z,12.07
2018-04-22T17:53:32.592Z,21.42
2018-04-22T17:56:00.020Z,22.30
2018-04-22T17:58:27.437Z,9.77
2018-04-22T18:00:54.848Z,9.50
2018-04-22T18:03:22.274Z,11.63
2018-04-22T18:05:49.706Z,11.67
2018-04-22T18:08:17.141Z,7.87
2018-04-22T18:10:44.552Z,9.73
2018-04-22T18:13:12.002Z,10.77
2018-04-22T18:15:39.461Z,9.70
2018-04-22T18:18:06.869Z,8.30
2018-04-22T18:20:34.292Z,11.77
2018-04-22T18:23:02.770Z,8.80
2018-04-22T18:25:30.194Z,5.87
2018-04-22T18:27:57.591Z,9.03
2018-04-22T18:30:27.849Z,7.87
2018-04-22T18:32:56.006Z,10.30
2018-04-22T18:35:24.186Z,8.57
2018-04-22T18:37:51.608Z,6.97
2018-04-22T18:40:19.053Z,11.00
2018-04-22T18:42:46.475Z,15.13
2018-04-22T18:45:13.880Z,5.73
2018-04-22T18:47:41.295Z,11.03
2018-04-22T18:50:08.725Z,7.53
2018-04-22T18:52:36.903Z,13.90
2018-04-22T18:55:05.080Z,10.10
2018-04-22T18:57:33.307Z,12.63
2018-04-22T19:00:00.769Z,8.17
2018-04-22T19:02:28.226Z,6.17
2018-04-22T19:04:55.701Z,12.33
2018-04-22T19:07:23.136Z,5.53
2018-04-22T19:09:51.364Z,7.17
2018-04-22T19:12:18.764Z,11.53
2018-04-22T19:14:46.284Z,10.73
2018-04-22T19:17:13.709Z,10.55
2018-04-22T19:19:41.128Z,10.63
2018-04-22T19:22:08.589Z,16.07
2018-04-22T19:24:36.017Z,6.60
2018-04-22T19:27:03.422Z,6.67
2018-04-22T19:29:30.854Z,14.83
2018-04-22T19:31:58.374Z,9.77
2018-04-22T19:34:25.773Z,6.87
2018-04-22T19:36:53.213Z,5.57
2018-04-22T19:39:20.653Z,7.60
2018-04-22T19:41:48.832Z,4.53
2018-04-22T19:44:17.011Z,3.73
2018-04-22T19:46:45.191Z,7.50
2018-04-22T19:49:12.698Z,4.67
2018-04-22T19:51:40.273Z,4.67
2018-04-22T19:54:07.832Z,4.63
2018-04-22T19:56:36.064Z,5.00
2018-04-22T19:59:03.521Z,8.60
2018-04-22T20:01:31.092Z,6.20
2018-04-22T20:03:58.542Z,4.37
2018-04-22T20:06:26.024Z,3.97
2018-04-22T20:08:53.421Z,6.27
2018-04-22T20:11:20.853Z,8.60
2018-04-22T20:13:48.332Z,3.23
2018-04-22T20:16:16.825Z,5.80
2018-04-22T20:18:44.260Z,5.73
2018-04-22T20:21:11.682Z,4.30
2018-04-22T20:23:39.132Z,6.63
2018-04-22T20:26:06.679Z,6.53
2018-04-22T20:28:34.103Z,3.83
2018-04-22T20:31:03.964Z,5.90
2018-04-22T20:33:31.440Z,7.87
2018-04-22T20:35:58.863Z,7.13
2018-04-22T20:38:26.373Z,6.10
2018-04-22T20:40:53.852Z,13.80
2018-04-22T20:43:21.321Z,7.30
2018-04-22T20:45:48.749Z,15.60
2018-04-22T20:48:16.252Z,7.37
2018-04-22T20:50:43.720Z,13.70
2018-04-22T20:53:11.192Z,10.80
2018-04-22T20:55:38.624Z,6.93
2018-04-22T20:58:06.033Z,8.73
2018-04-22T21:00:34.257Z,7.30
2018-04-22T21:03:01.717Z,8.13
2018-04-22T21:05:29.125Z,5.20
2018-04-22T21:07:57.348Z,12.50
2018-04-22T21:10:24.748Z,7.07
2018-04-22T21:12:52.184Z,14.73
2018-04-22T21:15:19.620Z,10.60
2018-04-22T21:17:47.814Z,9.40
2018-04-22T21:20:16.013Z,9.17
2018-04-22T21:22:43.453Z,10.37
2018-04-22T21:25:10.881Z,10.17
2018-04-22T21:27:38.343Z,7.50
2018-04-22T21:30:05.756Z,14.37
2018-04-22T21:32:34.913Z,11.30
2018-04-22T21:35:02.355Z,12.73
2018-04-22T21:37:30.540Z,12.07
2018-04-22T21:39:57.966Z,11.00
2018-04-22T21:42:25.389Z,9.33
2018-04-22T21:44:52.801Z,13.10
2018-04-22T21:47:20.250Z,9.43
2018-04-22T21:49:47.657Z,11.50
2018-04-22T21:52:15.084Z,18.67
2018-04-22T21:54:42.501Z,9.05
2018-04-22T21:57:10.826Z,8.97
2018-04-22T21:59:38.249Z,7.70
2018-04-22T22:02:05.785Z,10.40
2018-04-22T22:04:33.196Z,12.40
2018-04-22T22:07:01.389Z,15.00
2018-04-22T22:09:29.612Z,16.63
2018-04-22T22:11:57.037Z,11.13
2018-04-22T22:14:25.231Z,16.33
2018-04-22T22:16:53.424Z,8.60
2018-04-22T22:19:21.596Z,12.90
2018-04-22T22:21:49.808Z,15.73
2018-04-22T22:24:17.228Z,14.57
2018-04-22T22:26:44.768Z,12.87
2018-04-22T22:29:12.192Z,9.50
2018-04-22T22:31:40.418Z,9.53
2018-04-22T22:34:07.880Z,12.37
2018-04-22T22:36:36.473Z,14.10
2018-04-22T22:39:03.946Z,11.70
2018-04-22T22:41:31.374Z,16.07
2018-04-22T22:43:58.784Z,15.33
2018-04-22T22:46:26.206Z,13.00
2018-04-22T22:48:53.622Z,14.77
2018-04-22T22:51:21.081Z,9.23
2018-04-22T22:53:48.564Z,14.43
2018-04-22T22:56:15.981Z,10.63
2018-04-22T22:58:43.397Z,13.50
2018-04-22T23:01:10.836Z,10.73
2018-04-22T23:03:39.039Z,10.40
2018-04-22T23:06:06.476Z,10.80
2018-04-22T23:08:33.898Z,13.27
2018-04-22T23:11:01.354Z,11.03
2018-04-22T23:13:29.513Z,9.50
2018-04-22T23:15:56.924Z,9.37
2018-04-22T23:18:24.358Z,15.23
2018-04-22T23:20:52.570Z,15.60
2018-04-22T23:23:19.993Z,14.43
2018-04-22T23:25:47.408Z,8.60
2018-04-22T23:28:14.816Z,7.90
2018-04-22T23:30:42.342Z,11.03
2018-04-22T23:33:10.526Z,10.10
2018-04-22T23:35:37.991Z,13.43
2018-04-22T23:38:05.469Z,14.23
2018-04-22T23:40:32.889Z,11.23
2018-04-22T23:43:00.309Z,8.83
2018-04-22T23:45:27.723Z,9.97
2018-04-22T23:47:55.228Z,10.80
2018-04-22T23:50:22.641Z,14.30
2018-04-22T23:52:50.068Z,14.10
2018-04-22T23:55:17.537Z,11.40
2018-04-22T23:57:44.957Z,13.27
